createdAt,value
2018-05-24T00:01:29.870Z,59.10
2018-05-24T00:03:57.390Z,59.10
2018-05-24T00:06:24.893Z,59.00
2018-05-24T00:08:53.162Z,60.40
2018-05-24T00:11:20.669Z,60.20
2018-05-24T00:13:48.170Z,60.40
2018-05-24T00:16:15.709Z,61.20
2018-05-24T00:18:43.213Z,61.20
2018-05-24T00:21:10.714Z,61.20
2018-05-24T00:23:38.221Z,60.50
2018-05-24T00:26:05.723Z,61.80
2018-05-24T00:28:33.241Z,61.70
2018-05-24T00:31:00.753Z,60.90
2018-05-24T00:33:28.257Z,62.70
2018-05-24T00:35:55.757Z,61.70
2018-05-24T00:38:23.261Z,64.30
2018-05-24T00:40:50.786Z,62.90
2018-05-24T00:43:18.298Z,63.80
2018-05-24T00:45:45.805Z,63.80
2018-05-24T00:48:14.073Z,63.60
2018-05-24T00:50:41.654Z,63.60
2018-05-24T00:53:09.138Z,63.70
2018-05-24T00:55:40.621Z,62.60
2018-05-24T00:58:08.121Z,62.80
2018-05-24T01:00:35.628Z,63.60
2018-05-24T01:03:03.961Z,64.10
2018-05-24T01:05:31.485Z,64.10
2018-05-24T01:07:59.149Z,64.00
2018-05-24T01:10:26.647Z,65.90
2018-05-24T01:12:54.145Z,65.80
2018-05-24T01:15:21.641Z,65.40
2018-05-24T01:17:49.925Z,65.40
2018-05-24T01:20:17.512Z,65.30
2018-05-24T01:22:45.024Z,64.70
2018-05-24T01:25:12.537Z,65.80
2018-05-24T01:27:40.047Z,67.30
2018-05-24T01:30:07.620Z,67.80
2018-05-24T01:32:35.168Z,68.00
2018-05-24T01:35:02.724Z,68.20
2018-05-24T01:37:42.190Z,69.30
2018-05-24T01:40:09.743Z,69.70
2018-05-24T01:42:37.296Z,69.30
2018-05-24T01:45:04.845Z,69.50
2018-05-24T01:47:32.396Z,70.30
2018-05-24T01:49:59.949Z,69.70
2018-05-24T01:52:27.504Z,70.10
2018-05-24T01:54:55.052Z,71.00
2018-05-24T01:57:23.400Z,72.30
2018-05-24T01:59:50.948Z,72.20
2018-05-24T02:02:18.496Z,70.90
2018-05-24T02:04:46.072Z,70.40
2018-05-24T02:07:13.621Z,70.80
2018-05-24T02:09:41.191Z,70.90
2018-05-24T02:12:08.740Z,71.40
2018-05-24T02:14:36.308Z,70.10
2018-05-24T02:17:03.860Z,71.30
2018-05-24T02:19:31.412Z,71.00
2018-05-24T02:21:58.957Z,71.30
2018-05-24T02:24:26.508Z,70.80
2018-05-24T02:26:54.085Z,70.40
2018-05-24T02:29:21.640Z,69.60
2018-05-24T02:31:49.189Z,70.60
2018-05-24T02:34:16.739Z,70.70
2018-05-24T02:36:44.297Z,71.40
2018-05-24T02:39:11.880Z,70.60
2018-05-24T02:41:39.437Z,70.80
2018-05-24T02:44:07.004Z,69.90
2018-05-24T02:46:34.560Z,69.70
2018-05-24T02:49:02.115Z,71.00
2018-05-24T02:51:29.689Z,71.30
2018-05-24T02:53:57.239Z,71.80
2018-05-24T02:56:24.840Z,72.80
2018-05-24T02:58:53.133Z,74.00
2018-05-24T03:01:20.688Z,73.70
2018-05-24T03:03:49.045Z,72.10
2018-05-24T03:06:16.593Z,71.90
2018-05-24T03:08:44.145Z,73.50
2018-05-24T03:11:11.694Z,72.00
2018-05-24T03:13:39.246Z,71.80
2018-05-24T03:16:06.836Z,73.80
2018-05-24T03:18:34.384Z,73.30
2018-05-24T03:21:02.696Z,72.90
2018-05-24T03:23:30.240Z,72.70
2018-05-24T03:25:57.787Z,72.40
2018-05-24T03:28:25.365Z,71.80
2018-05-24T03:30:52.913Z,73.20
2018-05-24T03:33:20.484Z,72.50
2018-05-24T03:35:48.041Z,72.70
2018-05-24T03:38:15.599Z,70.40
2018-05-24T03:40:43.187Z,72.70
2018-05-24T03:43:10.744Z,74.10
2018-05-24T03:45:38.296Z,72.30
2018-05-24T03:48:05.848Z,74.10
2018-05-24T03:50:33.400Z,73.50
2018-05-24T03:53:00.989Z,74.20
2018-05-24T03:55:29.305Z,74.10
2018-05-24T03:57:56.855Z,74.00
2018-05-24T04:00:36.213Z,72.70
2018-05-24T04:03:15.428Z,72.90
2018-05-24T04:05:43.056Z,74.10
2018-05-24T04:08:10.563Z,72.60
2018-05-24T04:10:38.140Z,74.50
2018-05-24T04:13:05.688Z,75.30
2018-05-24T04:15:33.236Z,76.20
2018-05-24T04:18:00.782Z,75.60
2018-05-24T04:20:28.327Z,75.50
2018-05-24T04:22:55.896Z,75.00
2018-05-24T04:25:23.481Z,74.80
2018-05-24T04:27:51.029Z,75.90
2018-05-24T04:30:18.585Z,76.10
2018-05-24T04:32:46.141Z,76.00
2018-05-24T04:35:13.804Z,75.00
2018-05-24T04:37:41.359Z,75.80
2018-05-24T04:40:08.912Z,75.30
2018-05-24T04:42:36.464Z,75.90
2018-05-24T04:45:04.016Z,75.40
2018-05-24T04:47:31.600Z,75.30
2018-05-24T04:49:59.151Z,75.00
2018-05-24T04:52:26.713Z,74.80
2018-05-24T04:54:54.349Z,74.20
2018-05-24T04:57:21.908Z,72.70
2018-05-24T04:59:49.597Z,73.00
2018-05-24T05:02:17.144Z,71.80
2018-05-24T05:04:44.704Z,72.60
2018-05-24T05:07:12.254Z,72.80
2018-05-24T05:09:39.809Z,73.00
2018-05-24T05:12:07.396Z,72.60
2018-05-24T05:14:35.044Z,72.70
2018-05-24T05:17:02.533Z,72.40
2018-05-24T05:19:30.092Z,70.10
2018-05-24T05:21:57.658Z,71.50
2018-05-24T05:24:25.256Z,71.10
2018-05-24T05:26:52.821Z,71.30
2018-05-24T05:29:20.387Z,72.00
2018-05-24T05:31:47.948Z,72.20
2018-05-24T05:34:15.500Z,70.90
2018-05-24T05:36:43.082Z,69.90
2018-05-24T05:39:10.632Z,70.10
2018-05-24T05:41:38.180Z,67.70
2018-05-24T05:44:05.732Z,63.30
2018-05-24T05:46:33.300Z,59.30
2018-05-24T05:49:00.896Z,57.20
2018-05-24T05:51:28.528Z,56.80
2018-05-24T05:53:56.038Z,55.80
2018-05-24T05:56:23.598Z,56.10
2018-05-24T05:58:51.158Z,53.30
2018-05-24T06:01:18.738Z,53.00
2018-05-24T06:03:46.295Z,51.90
2018-05-24T06:06:13.853Z,51.00
2018-05-24T06:08:41.416Z,49.30
2018-05-24T06:11:08.979Z,49.20
2018-05-24T06:13:36.568Z,48.90
2018-05-24T06:16:04.127Z,47.30
2018-05-24T06:18:31.679Z,45.90
2018-05-24T06:20:59.248Z,45.20
2018-05-24T06:23:26.809Z,43.50
2018-05-24T06:25:54.400Z,43.20
2018-05-24T06:28:22.026Z,41.60
2018-05-24T06:30:49.537Z,40.80
2018-05-24T06:33:17.109Z,41.30
2018-05-24T06:35:44.668Z,39.90
2018-05-24T06:38:12.255Z,41.40
2018-05-24T06:40:39.809Z,41.70
2018-05-24T06:43:07.400Z,38.50
2018-05-24T06:45:34.957Z,38.60
2018-05-24T06:48:02.514Z,36.80
2018-05-24T06:50:30.104Z,35.80
2018-05-24T06:52:57.663Z,36.80
2018-05-24T06:55:25.218Z,36.70
2018-05-24T06:57:52.768Z,35.50
2018-05-24T07:00:20.348Z,34.50
2018-05-24T07:02:47.904Z,35.00
2018-05-24T07:05:15.456Z,35.20
2018-05-24T07:07:43.004Z,35.10
2018-05-24T07:10:10.571Z,36.10
2018-05-24T07:12:38.156Z,31.50
2018-05-24T07:15:05.716Z,32.90
2018-05-24T07:17:33.275Z,34.10
2018-05-24T07:20:00.834Z,34.80
2018-05-24T07:22:28.411Z,32.00
2018-05-24T07:24:55.996Z,33.70
2018-05-24T07:27:23.552Z,31.60
2018-05-24T07:29:51.108Z,33.90
2018-05-24T07:32:18.664Z,37.10
2018-05-24T07:34:46.232Z,37.80
2018-05-24T07:37:13.835Z,38.00
2018-05-24T07:39:42.132Z,37.90
2018-05-24T07:42:09.692Z,37.30
2018-05-24T07:44:38.020Z,36.10
2018-05-24T07:47:05.577Z,36.00
2018-05-24T07:49:33.156Z,39.20
2018-05-24T07:52:00.712Z,38.70
2018-05-24T07:54:28.267Z,37.40
2018-05-24T07:56:55.820Z,37.10
2018-05-24T07:59:23.377Z,36.90
2018-05-24T08:01:50.967Z,38.10
2018-05-24T08:04:19.293Z,35.90
2018-05-24T08:06:46.851Z,36.00
2018-05-24T08:09:14.408Z,37.90
2018-05-24T08:11:41.967Z,38.10
2018-05-24T08:14:09.556Z,35.80
2018-05-24T08:16:37.112Z,35.20
2018-05-24T08:19:04.665Z,37.60
2018-05-24T08:21:32.259Z,37.70
2018-05-24T08:23:59.808Z,36.40
2018-05-24T08:26:27.364Z,35.30
2018-05-24T08:28:54.948Z,34.40
2018-05-24T08:31:22.504Z,35.90
2018-05-24T08:33:50.065Z,36.30
2018-05-24T08:36:17.624Z,35.70
2018-05-24T08:38:45.172Z,37.80
2018-05-24T08:41:13.505Z,37.20
2018-05-24T08:43:41.055Z,37.10
2018-05-24T08:46:08.608Z,35.00
2018-05-24T08:48:36.160Z,36.50
2018-05-24T08:51:03.718Z,34.70
2018-05-24T08:53:31.272Z,35.30
2018-05-24T08:55:58.852Z,33.00
2018-05-24T08:58:26.404Z,34.70
2018-05-24T09:00:53.952Z,31.80
2018-05-24T09:03:21.504Z,33.60
2018-05-24T09:05:49.060Z,31.90
2018-05-24T09:08:16.644Z,35.40
2018-05-24T09:10:44.196Z,31.80
2018-05-24T09:13:11.752Z,31.10
2018-05-24T09:15:39.311Z,31.10
2018-05-24T09:18:06.868Z,33.70
2018-05-24T09:20:34.450Z,31.40
2018-05-24T09:23:02.763Z,30.80
2018-05-24T09:25:30.320Z,31.00
2018-05-24T09:27:57.891Z,29.40
2018-05-24T09:30:25.448Z,32.30
2018-05-24T09:32:53.021Z,33.00
2018-05-24T09:35:20.583Z,29.50
2018-05-24T09:37:48.141Z,31.50
2018-05-24T09:40:15.712Z,31.70
2018-05-24T09:42:43.264Z,30.00
2018-05-24T09:45:10.836Z,31.50
2018-05-24T09:47:38.388Z,30.60
2018-05-24T09:50:05.944Z,29.70
2018-05-24T09:52:33.497Z,28.10
2018-05-24T09:55:01.054Z,30.70
2018-05-24T09:57:28.628Z,30.80
2018-05-24T09:59:56.189Z,30.80
2018-05-24T10:02:24.516Z,31.30
2018-05-24T10:04:52.080Z,31.00
2018-05-24T10:07:19.752Z,30.70
2018-05-24T10:09:47.348Z,27.80
2018-05-24T10:12:14.902Z,30.90
2018-05-24T10:14:42.521Z,29.80
2018-05-24T10:17:10.089Z,30.70
2018-05-24T10:19:37.641Z,29.00
2018-05-24T10:22:05.238Z,31.00
2018-05-24T10:24:33.272Z,28.30
2018-05-24T10:27:00.824Z,30.50
2018-05-24T10:29:28.470Z,29.70
2018-05-24T10:31:55.965Z,30.10
2018-05-24T10:34:23.539Z,29.00
2018-05-24T10:36:51.100Z,31.50
2018-05-24T10:39:19.429Z,28.20
2018-05-24T10:41:46.991Z,27.80
2018-05-24T10:44:14.709Z,28.60
2018-05-24T10:46:42.335Z,29.00
2018-05-24T10:49:09.889Z,28.90
2018-05-24T10:51:37.444Z,28.30
2018-05-24T10:54:05.034Z,28.10
2018-05-24T10:56:32.588Z,28.30
2018-05-24T10:59:00.160Z,27.90
2018-05-24T11:01:27.715Z,28.70
2018-05-24T11:03:56.036Z,27.50
2018-05-24T11:06:23.669Z,27.40
2018-05-24T11:08:51.182Z,26.90
2018-05-24T11:11:18.752Z,28.80
2018-05-24T11:13:46.319Z,26.90
2018-05-24T11:16:13.878Z,28.60
2018-05-24T11:18:41.428Z,26.30
2018-05-24T11:21:08.983Z,27.20
2018-05-24T11:23:36.572Z,28.10
2018-05-24T11:26:04.126Z,26.90
2018-05-24T11:28:32.444Z,25.70
2018-05-24T11:30:59.996Z,25.70
2018-05-24T11:33:27.551Z,27.10
2018-05-24T11:35:55.129Z,27.80
2018-05-24T11:38:22.683Z,26.50
2018-05-24T11:40:50.246Z,26.70
2018-05-24T11:43:17.855Z,24.30
2018-05-24T11:45:46.164Z,26.60
2018-05-24T11:48:13.740Z,26.40
2018-05-24T11:50:41.291Z,25.20
2018-05-24T11:53:08.840Z,26.80
2018-05-24T11:55:36.400Z,26.50
2018-05-24T11:58:03.958Z,25.60
2018-05-24T12:00:31.536Z,25.60
2018-05-24T12:02:59.084Z,25.50
2018-05-24T12:05:26.644Z,26.60
2018-05-24T12:07:54.208Z,25.50
2018-05-24T12:10:21.761Z,25.60
2018-05-24T12:12:49.336Z,26.00
2018-05-24T12:15:17.435Z,25.40
2018-05-24T12:17:44.924Z,27.00
2018-05-24T12:20:12.482Z,25.80
2018-05-24T12:22:40.040Z,26.90
2018-05-24T12:25:07.604Z,25.50
2018-05-24T12:27:35.156Z,27.00
2018-05-24T12:30:02.728Z,26.10
2018-05-24T12:32:30.287Z,27.00
2018-05-24T12:34:57.836Z,26.50
2018-05-24T12:37:25.401Z,27.40
2018-05-24T12:39:52.955Z,28.20
2018-05-24T12:42:20.549Z,28.10
2018-05-24T12:44:48.110Z,27.50
2018-05-24T12:47:15.688Z,26.30
2018-05-24T12:49:44.008Z,27.90
2018-05-24T12:52:11.566Z,27.80
2018-05-24T12:54:39.165Z,26.10
2018-05-24T12:57:06.728Z,27.40
2018-05-24T12:59:35.055Z,26.20
2018-05-24T13:02:02.618Z,26.10
2018-05-24T13:04:30.193Z,27.30
2018-05-24T13:06:57.776Z,27.60
2018-05-24T13:09:26.112Z,27.30
2018-05-24T13:11:53.666Z,27.20
2018-05-24T13:14:21.216Z,26.80
2018-05-24T13:16:48.874Z,26.00
2018-05-24T13:19:16.456Z,25.60
2018-05-24T13:21:44.013Z,27.00
2018-05-24T13:24:11.570Z,28.30
2018-05-24T13:26:39.132Z,27.00
2018-05-24T13:29:06.686Z,26.60
2018-05-24T13:31:34.292Z,27.30
2018-05-24T13:34:01.971Z,27.50
2018-05-24T13:36:29.524Z,27.90
2018-05-24T13:38:57.079Z,26.20
2018-05-24T13:41:24.632Z,27.80
2018-05-24T13:43:52.497Z,28.20
2018-05-24T13:46:20.064Z,28.40
2018-05-24T13:48:47.628Z,29.50
2018-05-24T13:51:15.177Z,27.60
2018-05-24T13:53:42.735Z,27.60
2018-05-24T13:56:10.312Z,29.40
2018-05-24T13:58:37.890Z,28.50
2018-05-24T14:01:05.443Z,27.60
2018-05-24T14:03:33.006Z,28.50
2018-05-24T14:06:00.564Z,28.20
2018-05-24T14:08:28.160Z,29.50
2018-05-24T14:10:55.738Z,28.70
2018-05-24T14:13:23.295Z,28.40
2018-05-24T14:15:51.884Z,27.80
2018-05-24T14:18:19.551Z,28.50
2018-05-24T14:20:47.140Z,28.40
2018-05-24T14:23:14.695Z,28.70
2018-05-24T14:25:42.244Z,28.40
2018-05-24T14:28:09.796Z,28.20
2018-05-24T14:30:37.443Z,29.30
2018-05-24T14:33:05.023Z,28.80
2018-05-24T14:35:32.575Z,29.40
2018-05-24T14:38:00.132Z,28.20
2018-05-24T14:40:30.191Z,28.20
2018-05-24T14:42:57.745Z,28.90
2018-05-24T14:45:25.338Z,28.60
2018-05-24T14:47:58.347Z,28.60
2018-05-24T14:50:25.926Z,29.80
2018-05-24T14:52:53.487Z,29.40
2018-05-24T14:55:21.047Z,28.50
2018-05-24T14:57:48.600Z,28.20
2018-05-24T15:00:16.155Z,28.90
2018-05-24T15:02:43.712Z,29.10
2018-05-24T15:05:11.264Z,29.00
2018-05-24T15:07:39.625Z,28.30
2018-05-24T15:10:07.185Z,28.20
2018-05-24T15:12:34.780Z,28.90
2018-05-24T15:15:02.343Z,28.90
2018-05-24T15:17:29.937Z,29.90
2018-05-24T15:19:57.497Z,28.80
2018-05-24T15:22:25.064Z,29.00
2018-05-24T15:24:52.616Z,28.60
2018-05-24T15:27:20.176Z,28.90
2018-05-24T15:29:47.746Z,29.30
2018-05-24T15:32:15.300Z,28.80
2018-05-24T15:34:42.858Z,28.60
2018-05-24T15:37:10.421Z,28.30
2018-05-24T15:39:37.973Z,28.10
2018-05-24T15:42:05.560Z,29.10
2018-05-24T15:44:33.113Z,30.20
2018-05-24T15:47:00.667Z,28.40
2018-05-24T15:49:28.230Z,28.80
2018-05-24T15:51:55.784Z,29.00
2018-05-24T15:54:23.366Z,29.70
2018-05-24T15:56:50.917Z,28.80
2018-05-24T15:59:18.476Z,29.20
2018-05-24T16:01:46.028Z,29.40
2018-05-24T16:04:13.585Z,29.00
2018-05-24T16:06:43.130Z,30.10
2018-05-24T16:09:11.644Z,29.70
2018-05-24T16:11:39.202Z,29.10
2018-05-24T16:14:06.940Z,29.70
2018-05-24T16:16:34.500Z,29.60
2018-05-24T16:19:03.876Z,30.00
2018-05-24T16:21:31.424Z,29.50
2018-05-24T16:23:58.980Z,29.80
2018-05-24T16:26:26.532Z,29.90
2018-05-24T16:28:54.080Z,31.00
2018-05-24T16:31:21.679Z,30.30
2018-05-24T16:33:50.001Z,29.80
2018-05-24T16:36:17.570Z,29.70
2018-05-24T16:38:45.136Z,30.50
2018-05-24T16:41:12.688Z,30.30
2018-05-24T16:43:40.273Z,30.60
2018-05-24T16:46:07.824Z,30.70
2018-05-24T16:48:35.408Z,31.10
2018-05-24T16:51:03.731Z,31.70
2018-05-24T16:53:31.309Z,31.60
2018-05-24T16:55:58.884Z,32.20
2018-05-24T16:58:26.443Z,32.70
2018-05-24T17:00:54.137Z,32.00
2018-05-24T17:03:21.696Z,32.20
2018-05-24T17:05:49.247Z,32.20
2018-05-24T17:08:16.832Z,32.30
2018-05-24T17:10:44.386Z,33.50
2018-05-24T17:13:11.952Z,31.90
2018-05-24T17:15:39.513Z,32.30
2018-05-24T17:18:07.066Z,32.40
2018-05-24T17:20:34.644Z,33.10
2018-05-24T17:23:02.195Z,31.70
2018-05-24T17:25:29.753Z,31.60
2018-05-24T17:27:57.315Z,32.60
2018-05-24T17:30:24.910Z,32.70
2018-05-24T17:32:52.532Z,32.90
2018-05-24T17:35:20.089Z,32.80
2018-05-24T17:37:48.554Z,33.50
2018-05-24T17:40:16.105Z,33.90
2018-05-24T17:42:43.657Z,33.40
2018-05-24T17:45:11.240Z,33.80
2018-05-24T17:47:38.800Z,33.80
2018-05-24T17:50:07.124Z,32.80
2018-05-24T17:52:34.711Z,32.80
2018-05-24T17:55:03.050Z,34.20
2018-05-24T17:57:31.417Z,33.60
2018-05-24T17:59:58.979Z,33.50
2018-05-24T18:02:26.531Z,33.50
2018-05-24T18:04:54.080Z,33.70
2018-05-24T18:07:21.631Z,34.10
2018-05-24T18:09:49.192Z,34.50
2018-05-24T18:12:16.748Z,35.30
2018-05-24T18:14:44.328Z,35.60
2018-05-24T18:17:13.924Z,34.50
2018-05-24T18:19:42.512Z,34.40
2018-05-24T18:22:10.101Z,34.20
2018-05-24T18:24:37.657Z,35.00
2018-05-24T18:27:05.240Z,34.80
2018-05-24T18:29:32.796Z,34.60
2018-05-24T18:32:00.372Z,35.80
2018-05-24T18:34:27.976Z,35.70
2018-05-24T18:36:56.300Z,38.10
2018-05-24T18:39:23.887Z,38.00
2018-05-24T18:41:51.817Z,38.70
2018-05-24T18:44:19.372Z,39.80
2018-05-24T18:46:46.932Z,40.60
2018-05-24T18:49:14.490Z,41.10
2018-05-24T18:51:42.080Z,41.30
2018-05-24T18:54:09.632Z,41.30
2018-05-24T18:56:37.261Z,40.60
2018-05-24T18:59:04.765Z,41.10
2018-05-24T19:01:32.316Z,41.10
2018-05-24T19:03:59.960Z,41.10
2018-05-24T19:06:29.128Z,41.40
2018-05-24T19:08:58.223Z,42.10
2018-05-24T19:11:27.737Z,42.80
2018-05-24T19:13:57.162Z,42.90
2018-05-24T19:16:24.828Z,43.90
2018-05-24T19:18:52.442Z,44.80
2018-05-24T19:21:20.012Z,46.70
2018-05-24T19:23:47.597Z,47.20
2018-05-24T19:26:15.182Z,48.00
2018-05-24T19:28:43.991Z,48.70
2018-05-24T19:31:11.549Z,48.70
2018-05-24T19:33:39.109Z,48.70
2018-05-24T19:36:06.672Z,47.30
2018-05-24T19:38:34.227Z,47.40
2018-05-24T19:41:01.810Z,48.20
2018-05-24T19:43:29.380Z,48.60
2018-05-24T19:45:56.939Z,49.00
2018-05-24T19:48:24.495Z,49.70
2018-05-24T19:50:52.055Z,49.80
2018-05-24T19:53:19.636Z,50.40
2018-05-24T19:55:47.213Z,50.10
2018-05-24T19:58:15.096Z,51.40
2018-05-24T20:00:43.530Z,51.10
2018-05-24T20:03:11.084Z,50.50
2018-05-24T20:05:38.652Z,50.90
2018-05-24T20:08:06.272Z,51.20
2018-05-24T20:10:33.990Z,50.90
2018-05-24T20:13:02.371Z,51.10
2018-05-24T20:15:30.722Z,51.00
2018-05-24T20:17:58.440Z,51.10
2018-05-24T20:20:25.976Z,51.30
2018-05-24T20:22:53.568Z,51.30
2018-05-24T20:25:21.120Z,51.90
2018-05-24T20:27:48.700Z,51.40
2018-05-24T20:30:16.272Z,50.70
2018-05-24T20:32:43.854Z,50.80
2018-05-24T20:35:12.220Z,51.00
2018-05-24T20:37:39.775Z,50.90
2018-05-24T20:40:07.333Z,51.60
2018-05-24T20:42:35.029Z,50.50
2018-05-24T20:45:02.601Z,50.70
2018-05-24T20:47:30.152Z,51.50
2018-05-24T20:49:57.700Z,51.40
2018-05-24T20:52:25.278Z,51.10
2018-05-24T20:54:52.860Z,51.80
2018-05-24T20:57:20.424Z,51.00
2018-05-24T20:59:47.985Z,52.80
2018-05-24T21:02:15.556Z,52.60
2018-05-24T21:04:43.112Z,52.60
2018-05-24T21:07:10.736Z,54.10
2018-05-24T21:09:38.292Z,55.20
2018-05-24T21:12:05.846Z,56.00
2018-05-24T21:14:33.410Z,54.80
2018-05-24T21:17:00.964Z,54.40
2018-05-24T21:19:28.542Z,53.30
2018-05-24T21:21:56.151Z,55.30
2018-05-24T21:24:23.704Z,56.80
2018-05-24T21:26:51.280Z,57.40
2018-05-24T21:29:18.840Z,57.90
2018-05-24T21:31:46.392Z,57.10
2018-05-24T21:34:13.948Z,57.40
2018-05-24T21:36:41.505Z,58.60
2018-05-24T21:39:09.075Z,59.90
2018-05-24T21:41:36.747Z,59.90
2018-05-24T21:44:04.587Z,59.30
2018-05-24T21:46:32.174Z,58.90
2018-05-24T21:48:59.759Z,59.80
2018-05-24T21:51:27.310Z,59.80
2018-05-24T21:53:54.896Z,59.30
2018-05-24T21:56:22.449Z,59.10
2018-05-24T21:58:50.009Z,58.90
2018-05-24T22:01:17.580Z,59.90
2018-05-24T22:03:45.132Z,59.30
2018-05-24T22:06:12.720Z,60.30
2018-05-24T22:08:40.280Z,59.20
2018-05-24T22:11:07.851Z,60.00
2018-05-24T22:13:35.412Z,59.60
2018-05-24T22:16:03.069Z,59.20
2018-05-24T22:18:30.652Z,60.70
2018-05-24T22:20:58.209Z,60.10
2018-05-24T22:23:26.015Z,59.80
2018-05-24T22:25:53.577Z,61.00
2018-05-24T22:28:21.132Z,61.30
2018-05-24T22:30:48.722Z,62.90
2018-05-24T22:33:16.273Z,62.80
2018-05-24T22:35:43.830Z,63.10
2018-05-24T22:38:11.393Z,63.40
2018-05-24T22:40:39.711Z,63.30
2018-05-24T22:43:07.292Z,63.30
2018-05-24T22:45:35.611Z,64.10
2018-05-24T22:48:03.190Z,64.00
2018-05-24T22:50:30.749Z,64.80
2018-05-24T22:52:58.308Z,65.50
2018-05-24T22:55:25.897Z,65.40
2018-05-24T22:57:53.455Z,66.10
2018-05-24T23:00:21.016Z,67.10
2018-05-24T23:02:49.345Z,66.20
2018-05-24T23:05:16.927Z,66.10
2018-05-24T23:07:44.504Z,66.50
2018-05-24T23:10:12.065Z,67.10
2018-05-24T23:12:40.388Z,66.30
2018-05-24T23:15:07.940Z,65.90
2018-05-24T23:17:35.499Z,69.40
2018-05-24T23:20:03.154Z,67.60
2018-05-24T23:22:37.372Z,67.50
2018-05-24T23:25:04.960Z,68.00
2018-05-24T23:27:32.533Z,66.70
2018-05-24T23:30:00.095Z,67.40
2018-05-24T23:32:27.656Z,66.80
2018-05-24T23:34:55.224Z,66.90
2018-05-24T23:37:23.560Z,69.30
2018-05-24T23:39:51.108Z,69.10
2018-05-24T23:42:18.733Z,67.90
2018-05-24T23:44:46.287Z,69.10
2018-05-24T23:47:13.857Z,69.30
2018-05-24T23:49:41.449Z,69.10
2018-05-24T23:52:09.008Z,69.50
2018-05-24T23:54:36.556Z,70.80
2018-05-24T23:57:04.885Z,69.20
2018-05-24T23:59:32.447Z,69.10
